createdAt,value
2023-03-08T00:01:23.033Z,134.71207
2023-03-08T00:06:24.672Z,136.5
2023-03-08T00:11:26.085Z,133.53846
2023-03-08T00:16:27.629Z,128.98498
2023-03-08T00:21:29.313Z,128.43114
2023-03-08T00:26:30.818Z,125.71091
2023-03-08T00:31:32.329Z,125.17647
2023-03-08T00:36:33.838Z,126.24852
2023-03-08T00:41:35.460Z,128.98498
2023-03-08T00:46:37.200Z,127.8806
2023-03-08T00:51:38.727Z,127.33333
2023-03-08T00:56:40.180Z,122.03468
2023-03-08T01:01:41.724Z,122.03468
2023-03-08T01:06:43.351Z,117.03371
2023-03-08T01:11:44.977Z,116.06704
2023-03-08T01:16:46.495Z,116.06704
2023-03-08T01:21:48.011Z,119
2023-03-08T01:26:49.486Z,127.33333
2023-03-08T01:31:51.036Z,131.23404
2023-03-08T01:36:52.563Z,131.23404
2023-03-08T01:41:54.096Z,133.53846
2023-03-08T01:46:55.608Z,130.10272
2023-03-08T01:51:57.105Z,128.43114
2023-03-08T01:56:58.691Z,127.8806
2023-03-08T02:02:00.209Z,127.33333
2023-03-08T02:07:01.713Z,125.17647
2023-03-08T02:12:03.322Z,122.55072
2023-03-08T02:17:04.756Z,122.03468
2023-03-08T02:22:06.227Z,121.01149
2023-03-08T02:27:07.812Z,119
2023-03-08T02:32:09.335Z,116.54902
2023-03-08T02:37:10.823Z,114.63712
2023-03-08T02:42:12.294Z,115.11111
2023-03-08T02:47:13.850Z,112.30601
2023-03-08T02:52:15.382Z,111.84741
2023-03-08T02:57:16.878Z,110.48649
2023-03-08T03:02:18.331Z,108.70588
2023-03-08T03:07:19.809Z,108.26667
2023-03-08T03:12:21.336Z,108.26667
2023-03-08T03:17:22.941Z,108.70588
2023-03-08T03:22:24.406Z,108.70588
2023-03-08T03:27:25.878Z,109.14745
2023-03-08T03:32:27.645Z,108.26667
2023-03-08T03:37:29.185Z,108.26667
2023-03-08T03:42:30.749Z,107.39523
2023-03-08T03:47:32.215Z,108.70588
2023-03-08T03:52:33.745Z,106.10526
2023-03-08T03:57:35.238Z,105.25654
2023-03-08T04:02:36.807Z,101.14286
2023-03-08T04:07:38.328Z,98.77387
2023-03-08T04:12:39.828Z,99.16373
2023-03-08T04:17:41.290Z,98
2023-03-08T04:22:42.803Z,96.47525
2023-03-08T04:27:44.367Z,95.35135
2023-03-08T04:32:45.847Z,95.35135
2023-03-08T04:37:49.664Z,98.77387
2023-03-08T04:42:51.514Z,98.77387
2023-03-08T04:47:52.995Z,100.34518
2023-03-08T04:52:54.458Z,98.38596
2023-03-08T04:57:55.960Z,101.14286
2023-03-08T05:02:57.480Z,101.94872
2023-03-08T05:07:58.990Z,103.17313
2023-03-08T05:13:00.522Z,101.14286
2023-03-08T05:18:02.076Z,101.94872
2023-03-08T05:23:03.533Z,102.76289
2023-03-08T05:28:05.156Z,106.96296
2023-03-08T05:33:06.699Z,102.76289
2023-03-08T05:38:08.185Z,106.10526
2023-03-08T05:43:09.710Z,104
2023-03-08T05:48:11.120Z,106.53298
2023-03-08T05:53:12.638Z,112.76712
2023-03-08T05:58:14.133Z,112.30601
2023-03-08T06:03:15.730Z,115.11111
2023-03-08T06:08:17.927Z,114.63712
2023-03-08T06:13:19.477Z,117.52113
2023-03-08T06:18:21.078Z,117.03371
2023-03-08T06:23:22.554Z,117.52113
2023-03-08T06:28:24.096Z,136.5
2023-03-08T06:33:25.569Z,137.10345
2023-03-08T06:38:29.460Z,145.30719
2023-03-08T06:43:31.602Z,155.68385
2023-03-08T06:48:33.118Z,149.33333
2023-03-08T06:53:34.665Z,142.07074
2023-03-08T06:58:36.128Z,141.4359
2023-03-08T07:03:37.608Z,150.71141
2023-03-08T07:08:39.104Z,147.97351
2023-03-08T07:13:40.618Z,150.02007
2023-03-08T07:18:42.167Z,141.4359
2023-03-08T07:23:43.772Z,154.23891
2023-03-08T07:28:45.380Z,176.45283
2023-03-08T07:33:46.882Z,185.56863
2023-03-08T07:38:48.384Z,197.49794
2023-03-08T07:43:49.872Z,168.81752
2023-03-08T07:48:53.038Z,181.83784
2023-03-08T07:53:56.268Z,207.24786
2023-03-08T07:58:57.813Z,193.39271
2023-03-08T08:03:59.487Z,199.60166
2023-03-08T08:09:01.063Z,196.45902
2023-03-08T08:14:02.614Z,187.47826
2023-03-08T08:19:04.090Z,198.54545
2023-03-08T08:24:05.657Z,197.49794
2023-03-08T08:29:07.130Z,212.99563
2023-03-08T08:34:08.606Z,203.91561
2023-03-08T08:39:10.141Z,208.37768
2023-03-08T08:44:11.793Z,212.99563
2023-03-08T08:49:13.366Z,192.3871
2023-03-08T08:54:14.916Z,210.66667
2023-03-08T08:59:16.450Z,199.60166
2023-03-08T09:04:18.186Z,205.01695
2023-03-08T09:09:19.745Z,191.38956
2023-03-08T09:14:21.427Z,224
2023-03-08T09:19:23.134Z,216.56637
2023-03-08T09:24:24.721Z,208.37768
2023-03-08T09:29:26.338Z,211.82609
2023-03-08T09:34:27.788Z,207.24786
2023-03-08T09:39:29.253Z,214.17544
2023-03-08T09:44:30.735Z,207.24786
2023-03-08T09:49:32.324Z,202.82353
2023-03-08T09:54:34.268Z,207.24786
2023-03-08T09:59:35.720Z,217.77778
2023-03-08T10:04:37.259Z,215.36564
2023-03-08T10:09:38.826Z,214.17544
2023-03-08T10:14:40.399Z,216.56637
2023-03-08T10:19:41.843Z,209.51724
2023-03-08T10:24:43.396Z,215.36564
2023-03-08T10:29:45.010Z,220.23318
2023-03-08T10:34:46.595Z,219
2023-03-08T10:39:48.211Z,227.87097
2023-03-08T10:44:49.901Z,194.4065
2023-03-08T10:49:51.383Z,219
2023-03-08T10:54:52.802Z,234.56604
2023-03-08T10:59:54.436Z,231.85047
2023-03-08T11:04:56.161Z,245.96078
2023-03-08T11:09:57.801Z,235.94313
2023-03-08T11:14:59.301Z,215.36564
2023-03-08T11:20:00.915Z,235.94313
2023-03-08T11:25:02.334Z,240.15385
2023-03-08T11:30:03.988Z,234.56604
2023-03-08T11:35:05.561Z,237.33333
2023-03-08T11:40:07.106Z,224
2023-03-08T11:45:08.623Z,226.56881
2023-03-08T11:50:10.205Z,244.4878
2023-03-08T11:55:11.664Z,231.85047
2023-03-08T12:00:13.300Z,231.85047
2023-03-08T12:05:14.906Z,234.56604
2023-03-08T12:10:17.185Z,248.9505
2023-03-08T12:15:19.468Z,244.4878
2023-03-08T12:20:21.244Z,255.11111
2023-03-08T12:25:22.744Z,280.61202
2023-03-08T12:30:24.219Z,241.58454
2023-03-08T12:35:25.780Z,259.89744
2023-03-08T12:40:27.281Z,241.58454
2023-03-08T12:45:28.947Z,224
2023-03-08T12:50:30.444Z,240.15385
2023-03-08T12:55:32.098Z,250.46766
2023-03-08T13:00:33.627Z,253.54774
2023-03-08T13:05:35.092Z,243.02913
2023-03-08T13:10:36.684Z,222.73303
2023-03-08T13:15:38.136Z,235.94313
2023-03-08T13:20:41.463Z,233.20188
2023-03-08T13:25:43.444Z,237.33333
2023-03-08T13:30:44.909Z,233.20188
2023-03-08T13:35:46.501Z,233.20188
2023-03-08T13:40:48.126Z,226.56881
2023-03-08T13:45:49.769Z,224
2023-03-08T13:50:51.298Z,230.51163
2023-03-08T13:55:52.763Z,237.33333
2023-03-08T14:00:54.332Z,224
2023-03-08T14:05:55.849Z,225.27854
2023-03-08T14:10:57.404Z,240.15385
2023-03-08T14:15:58.933Z,229.18519
2023-03-08T14:21:00.538Z,229.18519
2023-03-08T14:26:03.764Z,227.87097
2023-03-08T14:31:08.379Z,229.18519
2023-03-08T14:36:11.533Z,241.58454
2023-03-08T14:41:14.045Z,253.54774
2023-03-08T14:46:15.573Z,225.27854
2023-03-08T14:51:17.213Z,248.9505
2023-03-08T14:56:18.697Z,247.44828
2023-03-08T15:01:20.262Z,243.02913
2023-03-08T15:06:21.874Z,252
2023-03-08T15:11:23.462Z,261.52577
2023-03-08T15:16:24.992Z,286.22222
2023-03-08T15:21:26.507Z,243.02913
2023-03-08T15:26:27.993Z,237.33333
2023-03-08T15:31:29.599Z,255.11111
2023-03-08T15:36:31.145Z,278.78261
2023-03-08T15:41:32.611Z,255.11111
2023-03-08T15:46:34.184Z,255.11111
2023-03-08T15:51:35.751Z,258.28571
2023-03-08T15:56:37.545Z,221.47748
2023-03-08T16:01:39.100Z,197.49794
2023-03-08T16:06:40.846Z,193.39271
2023-03-08T16:11:42.560Z,206.12766
2023-03-08T16:16:45.908Z,189.41833
2023-03-08T16:21:47.592Z,137.71069
2023-03-08T16:26:49.062Z,149.33333
2023-03-08T16:31:50.616Z,154.23891
2023-03-08T16:36:52.251Z,163.21708
2023-03-08T16:41:53.863Z,163.21708
2023-03-08T16:46:55.335Z,161.66784
2023-03-08T16:51:56.834Z,155.68385
2023-03-08T16:57:01.094Z,159.38462
2023-03-08T17:02:06.599Z,149.33333
2023-03-08T17:07:08.083Z,144.65147
2023-03-08T17:12:09.585Z,147.30033
2023-03-08T17:17:11.214Z,139.55556
2023-03-08T17:22:12.718Z,145.96721
2023-03-08T17:27:14.202Z,150.02007
2023-03-08T17:32:15.847Z,137.10345
2023-03-08T17:37:17.431Z,137.10345
2023-03-08T17:42:19.063Z,133.53846
2023-03-08T17:47:20.742Z,124.64516
2023-03-08T17:52:22.245Z,122.55072
2023-03-08T17:57:23.852Z,124.64516
2023-03-08T18:02:25.351Z,124.11696
2023-03-08T18:07:27.085Z,126.24852
2023-03-08T18:12:28.622Z,129.54217
2023-03-08T18:17:30.217Z,132.95706
2023-03-08T18:22:31.725Z,124.11696
2023-03-08T18:27:34.467Z,127.33333
2023-03-08T18:32:36.444Z,134.12346
2023-03-08T18:37:38.147Z,130.10272
2023-03-08T18:42:39.636Z,132.3792
2023-03-08T18:47:41.266Z,138.32177
2023-03-08T18:52:42.804Z,132.3792
2023-03-08T18:57:44.243Z,142.70968
2023-03-08T19:02:45.799Z,147.30033
2023-03-08T19:07:47.640Z,151.40741
2023-03-08T19:12:49.178Z,148.65116
2023-03-08T19:17:50.788Z,156.41379
2023-03-08T19:22:52.256Z,160.90141
2023-03-08T19:27:53.893Z,157.88889
2023-03-08T19:32:55.401Z,158.63415
2023-03-08T19:37:56.962Z,156.41379
2023-03-08T19:42:58.468Z,154.23891
2023-03-08T19:48:00.153Z,156.41379
2023-03-08T19:53:01.579Z,157.88889
2023-03-08T19:58:03.165Z,158.63415
2023-03-08T20:03:04.664Z,160.90141
2023-03-08T20:08:06.194Z,158.63415
2023-03-08T20:13:08.196Z,156.41379
2023-03-08T20:18:10.087Z,151.40741
2023-03-08T20:23:11.513Z,150.71141
2023-03-08T20:28:13.094Z,152.10811
2023-03-08T20:33:14.574Z,149.33333
2023-03-08T20:38:16.045Z,152.81356
2023-03-08T20:43:17.541Z,147.30033
2023-03-08T20:48:19.091Z,146.63158
2023-03-08T20:53:20.599Z,145.96721
2023-03-08T20:58:22.122Z,146.63158
2023-03-08T21:03:23.604Z,145.96721
2023-03-08T21:08:25.121Z,142.07074
2023-03-08T21:13:27.394Z,142.70968
2023-03-08T21:18:28.890Z,144
2023-03-08T21:23:30.341Z,143.35275
2023-03-08T21:28:31.994Z,145.96721
2023-03-08T21:33:33.611Z,142.70968
2023-03-08T21:38:35.222Z,143.35275
2023-03-08T21:43:37.397Z,141.4359
2023-03-08T21:48:38.906Z,142.07074
2023-03-08T21:53:40.392Z,142.70968
2023-03-08T21:58:41.925Z,142.70968
2023-03-08T22:03:43.580Z,141.4359
2023-03-08T22:08:45.146Z,142.07074
2023-03-08T22:13:46.643Z,141.4359
2023-03-08T22:18:48.343Z,140.80511
2023-03-08T22:23:51.391Z,137.71069
2023-03-08T22:28:53.149Z,142.70968
2023-03-08T22:33:54.784Z,140.17834
2023-03-08T22:38:56.348Z,137.10345
2023-03-08T22:43:57.850Z,137.10345
2023-03-08T22:48:59.360Z,135.90031
2023-03-08T22:54:00.802Z,136.5
2023-03-08T22:59:02.291Z,135.90031
2023-03-08T23:04:04.059Z,138.93671
2023-03-08T23:09:05.534Z,136.5
2023-03-08T23:14:07.049Z,137.10345
2023-03-08T23:19:08.496Z,138.93671
2023-03-08T23:24:10.019Z,138.32177
2023-03-08T23:29:11.510Z,138.32177
2023-03-08T23:34:13.148Z,138.32177
2023-03-08T23:39:14.637Z,138.93671
2023-03-08T23:44:16.156Z,138.32177
2023-03-08T23:49:17.668Z,138.32177
2023-03-08T23:54:19.141Z,134.71207
2023-03-08T23:59:20.608Z,135.30435
